sensor_id;sensor_type;location;lat;lon;timestamp;pressure;altitude;pressure_sealevel;temperature;humidity
39449;BME280;25151;45.566;9.382;2023-07-29T00:01:11;99501.09;;;27.03;51.99
39449;BME280;25151;45.566;9.382;2023-07-29T00:03:38;99501.88;;;27.04;51.94
39449;BME280;25151;45.566;9.382;2023-07-29T00:06:06;99503.94;;;27.03;51.78
39449;BME280;25151;45.566;9.382;2023-07-29T00:08:33;99498.78;;;27.02;51.69
39449;BME280;25151;45.566;9.382;2023-07-29T00:11:00;99496.97;;;26.98;51.76
39449;BME280;25151;45.566;9.382;2023-07-29T00:13:28;99502.06;;;26.94;52.05
39449;BME280;25151;45.566;9.382;2023-07-29T00:15:57;99507.53;;;27.04;51.73
39449;BME280;25151;45.566;9.382;2023-07-29T00:18:25;99494.63;;;26.97;51.82
39449;BME280;25151;45.566;9.382;2023-07-29T00:20:53;99511.66;;;27.03;51.97
39449;BME280;25151;45.566;9.382;2023-07-29T00:23:23;99489.69;;;26.92;51.69
39449;BME280;25151;45.566;9.382;2023-07-29T00:25:51;99495.97;;;27.02;52.04
39449;BME280;25151;45.566;9.382;2023-07-29T00:28:18;99498.78;;;27.02;52.11
39449;BME280;25151;45.566;9.382;2023-07-29T00:30:45;99501.63;;;27.02;51.62
39449;BME280;25151;45.566;9.382;2023-07-29T00:33:12;99499.25;;;26.94;52.01
39449;BME280;25151;45.566;9.382;2023-07-29T00:35:40;99488.47;;;26.98;51.91
39449;BME280;25151;45.566;9.382;2023-07-29T00:38:07;99490.25;;;26.96;51.53
39449;BME280;25151;45.566;9.382;2023-07-29T00:40:35;99498.03;;;27.01;52.04
39449;BME280;25151;45.566;9.382;2023-07-29T00:43:05;99487.91;;;26.94;52.01
39449;BME280;25151;45.566;9.382;2023-07-29T00:45:33;99475.06;;;26.93;51.67
39449;BME280;25151;45.566;9.382;2023-07-29T00:48:01;99480.75;;;26.99;51.85
39449;BME280;25151;45.566;9.382;2023-07-29T00:50:29;99478.66;;;26.94;51.74
39449;BME280;25151;45.566;9.382;2023-07-29T00:52:57;99469.94;;;26.97;52.13
39449;BME280;25151;45.566;9.382;2023-07-29T00:55:24;99463.75;;;26.93;52.02
39449;BME280;25151;45.566;9.382;2023-07-29T00:57:54;99464.53;;;27.00;51.84
39449;BME280;25151;45.566;9.382;2023-07-29T01:00:21;99461.72;;;27.00;52.13
39449;BME280;25151;45.566;9.382;2023-07-29T01:02:48;99471.50;;;26.98;52.08
39449;BME280;25151;45.566;9.382;2023-07-29T01:05:16;99471.50;;;26.98;52.08
39449;BME280;25151;45.566;9.382;2023-07-29T01:16:23;99459.84;;;26.91;51.71
39449;BME280;25151;45.566;9.382;2023-07-29T01:18:54;99455.47;;;26.90;51.94
39449;BME280;25151;45.566;9.382;2023-07-29T01:21:22;99465.00;;;26.92;51.71
39449;BME280;25151;45.566;9.382;2023-07-29T01:23:58;99468.41;;;26.96;51.96
39449;BME280;25151;45.566;9.382;2023-07-29T01:26:26;99464.50;;;26.94;51.93
39449;BME280;25151;45.566;9.382;2023-07-29T01:28:56;99477.66;;;26.97;51.98
39449;BME280;25151;45.566;9.382;2023-07-29T01:31:31;99473.47;;;26.92;51.78
39449;BME280;25151;45.566;9.382;2023-07-29T01:34:09;99479.44;;;26.94;52.00
39449;BME280;25151;45.566;9.382;2023-07-29T01:36:42;99492.59;;;26.97;51.97
39449;BME280;25151;45.566;9.382;2023-07-29T01:39:13;99488.97;;;26.97;51.95
39449;BME280;25151;45.566;9.382;2023-07-29T01:41:41;99498.25;;;26.97;52.26
39449;BME280;25151;45.566;9.382;2023-07-29T01:44:11;99499.00;;;26.98;52.05
39449;BME280;25151;45.566;9.382;2023-07-29T01:46:41;99503.91;;;26.97;52.12
39449;BME280;25151;45.566;9.382;2023-07-29T01:49:08;99499.78;;;26.98;52.21
39449;BME280;25151;45.566;9.382;2023-07-29T01:51:35;99503.13;;;26.97;52.25
39449;BME280;25151;45.566;9.382;2023-07-29T01:54:02;99503.91;;;26.97;52.13
39449;BME280;25151;45.566;9.382;2023-07-29T01:56:30;99476.81;;;26.91;51.89
39449;BME280;25151;45.566;9.382;2023-07-29T01:58:57;99491.28;;;26.98;51.88
39449;BME280;25151;45.566;9.382;2023-07-29T02:01:25;99491.03;;;26.96;51.72
39449;BME280;25151;45.566;9.382;2023-07-29T02:03:52;99475.53;;;26.92;51.86
39449;BME280;25151;45.566;9.382;2023-07-29T02:06:21;99482.03;;;26.98;52.06
39449;BME280;25151;45.566;9.382;2023-07-29T02:08:49;99467.81;;;26.92;51.74
39449;BME280;25151;45.566;9.382;2023-07-29T02:11:16;99471.22;;;26.96;52.16
39449;BME280;25151;45.566;9.382;2023-07-29T02:13:49;99466.28;;;26.91;51.85
39449;BME280;25151;45.566;9.382;2023-07-29T02:16:16;99476.88;;;26.96;51.74
39449;BME280;25151;45.566;9.382;2023-07-29T02:18:46;99485.38;;;26.96;52.16
39449;BME280;25151;45.566;9.382;2023-07-29T02:21:13;99468.34;;;26.91;51.99
39449;BME280;25151;45.566;9.382;2023-07-29T02:23:40;99486.63;;;26.95;52.08
39449;BME280;25151;45.566;9.382;2023-07-29T02:26:08;99484.56;;;26.96;51.85
39449;BME280;25151;45.566;9.382;2023-07-29T02:28:35;99476.81;;;26.91;52.05
39449;BME280;25151;45.566;9.382;2023-07-29T02:31:20;99489.47;;;26.95;51.88
39449;BME280;25151;45.566;9.382;2023-07-29T02:33:48;99486.63;;;26.95;52.23
39449;BME280;25151;45.566;9.382;2023-07-29T02:36:16;99492.28;;;26.95;51.87
39449;BME280;25151;45.566;9.382;2023-07-29T02:38:43;99492.25;;;26.90;51.85
39449;BME280;25151;45.566;9.382;2023-07-29T02:41:10;99484.56;;;26.96;51.91
39449;BME280;25151;45.566;9.382;2023-07-29T02:43:39;99491.53;;;26.95;52.11
39449;BME280;25151;45.566;9.382;2023-07-29T02:46:07;99483.25;;;26.91;52.14
39449;BME280;25151;45.566;9.382;2023-07-29T02:48:34;99478.88;;;26.90;52.16
39449;BME280;25151;45.566;9.382;2023-07-29T02:51:01;99475.28;;;26.90;51.78
39449;BME280;25151;45.566;9.382;2023-07-29T02:53:29;99472.50;;;26.95;51.76
39449;BME280;25151;45.566;9.382;2023-07-29T02:55:56;99466.03;;;26.89;52.17
39449;BME280;25151;45.566;9.382;2023-07-29T02:58:23;99476.59;;;26.94;52.21
39449;BME280;25151;45.566;9.382;2023-07-29T03:00:52;99483.53;;;26.93;51.82
39449;BME280;25151;45.566;9.382;2023-07-29T03:03:19;99487.16;;;26.94;51.85
39449;BME280;25151;45.566;9.382;2023-07-29T03:05:46;99489.16;;;26.88;52.12
39449;BME280;25151;45.566;9.382;2023-07-29T03:08:14;99489.16;;;26.88;51.98
39449;BME280;25151;45.566;9.382;2023-07-29T03:10:41;99490.75;;;26.94;51.88
39449;BME280;25151;45.566;9.382;2023-07-29T03:13:09;99502.84;;;26.95;52.33
39449;BME280;25151;45.566;9.382;2023-07-29T03:15:36;99485.09;;;26.94;51.88
39449;BME280;25151;45.566;9.382;2023-07-29T03:18:04;99478.59;;;26.88;52.31
39449;BME280;25151;45.566;9.382;2023-07-29T03:20:31;99480.72;;;26.93;51.83
39449;BME280;25151;45.566;9.382;2023-07-29T03:22:58;99480.44;;;26.91;51.92
39449;BME280;25151;45.566;9.382;2023-07-29T03:25:25;99482.78;;;26.93;52.29
39449;BME280;25151;45.566;9.382;2023-07-29T03:27:52;99476.59;;;26.94;52.19
39449;BME280;25151;45.566;9.382;2023-07-29T03:30:21;99486.38;;;26.93;51.80
39449;BME280;25151;45.566;9.382;2023-07-29T03:32:49;99486.38;;;26.93;52.00
39449;BME280;25151;45.566;9.382;2023-07-29T03:35:16;99488.16;;;26.91;52.22
39449;BME280;25151;45.566;9.382;2023-07-29T03:37:43;99497.69;;;26.93;51.94
39449;BME280;25151;45.566;9.382;2023-07-29T03:40:10;99497.69;;;26.93;52.11
39449;BME280;25151;45.566;9.382;2023-07-29T03:42:38;99491.97;;;26.88;52.12
39449;BME280;25151;45.566;9.382;2023-07-29T03:45:09;99509.00;;;26.93;52.34
39449;BME280;25151;45.566;9.382;2023-07-29T03:47:36;99481.44;;;26.88;52.19
39449;BME280;25151;45.566;9.382;2023-07-29T03:50:03;99489.69;;;26.92;51.94
39449;BME280;25151;45.566;9.382;2023-07-29T03:52:30;99467.53;;;26.85;51.99
39449;BME280;25151;45.566;9.382;2023-07-29T03:54:57;99471.41;;;26.87;52.17
39449;BME280;25151;45.566;9.382;2023-07-29T03:57:27;99475.50;;;26.86;52.30
39449;BME280;25151;45.566;9.382;2023-07-29T03:59:55;99486.88;;;26.92;52.32
39449;BME280;25151;45.566;9.382;2023-07-29T04:02:22;99474.75;;;26.86;52.29
39449;BME280;25151;45.566;9.382;2023-07-29T04:04:49;99471.41;;;26.87;52.40
39449;BME280;25151;45.566;9.382;2023-07-29T04:07:19;99476.28;;;26.87;52.17
39449;BME280;25151;45.566;9.382;2023-07-29T04:09:46;99476.19;;;26.76;51.83
39449;BME280;25151;45.566;9.382;2023-07-29T04:12:13;99488.97;;;26.65;52.23
39449;BME280;25151;45.566;9.382;2023-07-29T04:14:39;99499.09;;;26.52;52.45
39449;BME280;25151;45.566;9.382;2023-07-29T04:17:06;99495.91;;;26.44;52.77
39449;BME280;25151;45.566;9.382;2023-07-29T04:19:38;99501.28;;;26.42;52.91
39449;BME280;25151;45.566;9.382;2023-07-29T04:22:06;99501.44;;;26.33;53.00
39449;BME280;25151;45.566;9.382;2023-07-29T04:24:41;99499.84;;;26.26;53.18
39449;BME280;25151;45.566;9.382;2023-07-29T04:27:11;99519.44;;;26.35;53.09
39449;BME280;25151;45.566;9.382;2023-07-29T04:29:38;99523.13;;;26.41;52.75
39449;BME280;25151;45.566;9.382;2023-07-29T04:32:04;99532.59;;;26.38;52.66
39449;BME280;25151;45.566;9.382;2023-07-29T04:34:31;99536.63;;;26.32;53.20
39449;BME280;25151;45.566;9.382;2023-07-29T04:36:57;99537.00;;;26.19;53.16
39449;BME280;25151;45.566;9.382;2023-07-29T04:39:23;99547.09;;;26.26;53.22
39449;BME280;25151;45.566;9.382;2023-07-29T04:41:49;99550.41;;;26.24;53.18
39449;BME280;25151;45.566;9.382;2023-07-29T04:44:18;99549.03;;;26.14;53.41
39449;BME280;25151;45.566;9.382;2023-07-29T04:46:44;99533.75;;;26.06;53.48
39449;BME280;25151;45.566;9.382;2023-07-29T04:49:13;99540.66;;;26.05;53.65
39449;BME280;25151;45.566;9.382;2023-07-29T04:51:39;99529.50;;;25.95;53.84
39449;BME280;25151;45.566;9.382;2023-07-29T04:54:06;99524.63;;;25.96;53.77
39449;BME280;25151;45.566;9.382;2023-07-29T04:56:31;99522.31;;;25.94;53.31
39449;BME280;25151;45.566;9.382;2023-07-29T04:58:57;99539.06;;;26.18;53.29
39449;BME280;25151;45.566;9.382;2023-07-29T05:01:23;99523.13;;;26.21;53.14
39449;BME280;25151;45.566;9.382;2023-07-29T05:03:50;99531.00;;;26.11;53.29
39449;BME280;25151;45.566;9.382;2023-07-29T05:06:16;99522.88;;;26.19;53.28
39449;BME280;25151;45.566;9.382;2023-07-29T05:08:45;99532.88;;;26.20;52.89
39449;BME280;25151;45.566;9.382;2023-07-29T05:11:11;99527.41;;;26.11;53.19
39449;BME280;25151;45.566;9.382;2023-07-29T05:13:37;99539.41;;;26.06;53.30
39449;BME280;25151;45.566;9.382;2023-07-29T05:16:03;99531.63;;;26.00;53.08
39449;BME280;25151;45.566;9.382;2023-07-29T05:18:30;99539.81;;;25.98;53.53
39449;BME280;25151;45.566;9.382;2023-07-29T05:20:56;99530.78;;;25.94;54.01
39449;BME280;25151;45.566;9.382;2023-07-29T05:23:22;99513.13;;;25.79;54.19
39449;BME280;25151;45.566;9.382;2023-07-29T05:25:48;99508.94;;;25.74;54.13
39449;BME280;25151;45.566;9.382;2023-07-29T05:28:17;99532.75;;;25.88;54.06
39449;BME280;25151;45.566;9.382;2023-07-29T05:30:44;99534.59;;;25.91;54.01
39449;BME280;25151;45.566;9.382;2023-07-29T05:33:09;99541.38;;;25.99;53.95
39449;BME280;25151;45.566;9.382;2023-07-29T05:35:35;99535.22;;;26.01;54.07
39449;BME280;25151;45.566;9.382;2023-07-29T05:38:01;99535.22;;;26.01;54.10
39449;BME280;25151;45.566;9.382;2023-07-29T05:40:28;99532.19;;;26.05;53.75
39449;BME280;25151;45.566;9.382;2023-07-29T05:42:54;99535.44;;;26.18;54.18
39449;BME280;25151;45.566;9.382;2023-07-29T05:45:20;99539.66;;;26.28;53.69
39449;BME280;25151;45.566;9.382;2023-07-29T05:47:50;99541.81;;;26.33;53.93
39449;BME280;25151;45.566;9.382;2023-07-29T05:50:15;99538.47;;;26.35;53.79
39449;BME280;25151;45.566;9.382;2023-07-29T05:52:41;99546.88;;;26.29;54.09
39449;BME280;25151;45.566;9.382;2023-07-29T05:55:07;99550.19;;;26.28;53.98
39449;BME280;25151;45.566;9.382;2023-07-29T05:57:34;99551.75;;;26.29;53.89
39449;BME280;25151;45.566;9.382;2023-07-29T06:00:00;99544.53;;;26.28;54.39
39449;BME280;25151;45.566;9.382;2023-07-29T06:02:26;99531.91;;;26.23;54.35
39449;BME280;25151;45.566;9.382;2023-07-29T06:04:52;99531.13;;;26.22;54.56
39449;BME280;25151;45.566;9.382;2023-07-29T06:07:18;99561.28;;;26.31;54.56
39449;BME280;25151;45.566;9.382;2023-07-29T06:09:44;99563.81;;;26.29;54.76
39449;BME280;25151;45.566;9.382;2023-07-29T06:12:10;99554.22;;;26.21;54.81
39449;BME280;25151;45.566;9.382;2023-07-29T06:14:36;99561.28;;;26.31;54.70
39449;BME280;25151;45.566;9.382;2023-07-29T06:17:02;99552.97;;;26.22;55.17
39449;BME280;25151;45.566;9.382;2023-07-29T06:19:29;99563.81;;;26.29;55.21
39449;BME280;25151;45.566;9.382;2023-07-29T06:21:56;99563.63;;;26.33;55.30
39449;BME280;25151;45.566;9.382;2023-07-29T06:24:29;99567.50;;;26.35;55.11
39449;BME280;25151;45.566;9.382;2023-07-29T06:26:55;99574.16;;;26.32;55.22
39449;BME280;25151;45.566;9.382;2023-07-29T06:29:20;99571.81;;;26.31;55.36
39449;BME280;25151;45.566;9.382;2023-07-29T06:31:47;99555.63;;;26.31;55.52
39449;BME280;25151;45.566;9.382;2023-07-29T06:34:13;99553.25;;;26.24;55.89
39449;BME280;25151;45.566;9.382;2023-07-29T06:36:40;99565.19;;;26.34;55.90
39449;BME280;25151;45.566;9.382;2023-07-29T06:39:06;99563.69;;;26.38;55.57
39449;BME280;25151;45.566;9.382;2023-07-29T06:41:32;99552.38;;;26.38;55.12
39449;BME280;25151;45.566;9.382;2023-07-29T06:43:58;99573.00;;;26.44;55.79
39449;BME280;25151;45.566;9.382;2023-07-29T06:46:25;99553.53;;;26.26;55.90
39449;BME280;25151;45.566;9.382;2023-07-29T06:48:52;99579.94;;;26.43;56.11
39449;BME280;25151;45.566;9.382;2023-07-29T06:51:18;99574.50;;;26.40;55.76
39449;BME280;25151;45.566;9.382;2023-07-29T06:53:44;99577.84;;;26.38;56.14
39449;BME280;25151;45.566;9.382;2023-07-29T06:56:10;99565.97;;;26.34;55.78
39449;BME280;25151;45.566;9.382;2023-07-29T06:58:36;99577.88;;;26.44;55.91
39449;BME280;25151;45.566;9.382;2023-07-29T07:01:02;99581.47;;;26.44;56.10
39449;BME280;25151;45.566;9.382;2023-07-29T07:03:29;99572.75;;;26.42;56.06
39449;BME280;25151;45.566;9.382;2023-07-29T07:05:55;99580.09;;;26.55;55.72
39449;BME280;25151;45.566;9.382;2023-07-29T07:08:21;99576.50;;;26.54;55.71
39449;BME280;25151;45.566;9.382;2023-07-29T07:10:48;99580.66;;;26.59;56.02
39449;BME280;25151;45.566;9.382;2023-07-29T07:13:14;99588.63;;;26.60;56.07
39449;BME280;25151;45.566;9.382;2023-07-29T07:15:40;99584.56;;;26.61;55.66
39449;BME280;25151;45.566;9.382;2023-07-29T07:18:07;99589.91;;;26.59;55.60
39449;BME280;25151;45.566;9.382;2023-07-29T07:20:33;99575.22;;;26.55;55.46
39449;BME280;25151;45.566;9.382;2023-07-29T07:23:03;99585.59;;;26.64;55.69
39449;BME280;25151;45.566;9.382;2023-07-29T07:25:31;99583.75;;;26.61;55.62
39449;BME280;25151;45.566;9.382;2023-07-29T07:27:59;99587.38;;;26.61;55.58
39449;BME280;25151;45.566;9.382;2023-07-29T07:30:25;99579.88;;;26.58;55.10
39449;BME280;25151;45.566;9.382;2023-07-29T07:32:52;99598.47;;;26.65;55.21
39449;BME280;25151;45.566;9.382;2023-07-29T07:35:21;99575.00;;;26.59;55.21
39449;BME280;25151;45.566;9.382;2023-07-29T07:37:48;99572.19;;;26.59;55.14
39449;BME280;25151;45.566;9.382;2023-07-29T07:40:22;99578.09;;;26.61;55.36
39449;BME280;25151;45.566;9.382;2023-07-29T07:42:51;99576.84;;;26.62;55.32
39449;BME280;25151;45.566;9.382;2023-07-29T07:45:21;99572.44;;;26.61;55.11
39449;BME280;25151;45.566;9.382;2023-07-29T07:47:51;99582.56;;;26.67;54.96
39449;BME280;25151;45.566;9.382;2023-07-29T07:50:18;99572.44;;;26.61;55.19
39449;BME280;25151;45.566;9.382;2023-07-29T07:52:48;99569.13;;;26.62;54.79
39449;BME280;25151;45.566;9.382;2023-07-29T07:55:15;99574.28;;;26.64;54.90
39449;BME280;25151;45.566;9.382;2023-07-29T07:57:41;99577.88;;;26.64;54.52
39449;BME280;25151;45.566;9.382;2023-07-29T08:00:09;99574.28;;;26.64;54.58
39449;BME280;25151;45.566;9.382;2023-07-29T08:02:36;99565.78;;;26.64;54.60
39449;BME280;25151;45.566;9.382;2023-07-29T08:05:11;99558.88;;;26.65;54.73
39449;BME280;25151;45.566;9.382;2023-07-29T08:07:43;99568.16;;;26.65;54.71
39449;BME280;25151;45.566;9.382;2023-07-29T08:10:11;99566.09;;;26.66;54.53
39449;BME280;25151;45.566;9.382;2023-07-29T08:12:44;99578.22;;;26.72;54.63
39449;BME280;25151;45.566;9.382;2023-07-29T08:15:13;99579.78;;;26.73;54.58
39449;BME280;25151;45.566;9.382;2023-07-29T08:17:42;99562.28;;;26.69;54.59
39449;BME280;25151;45.566;9.382;2023-07-29T08:20:12;99570.81;;;26.75;54.35
39449;BME280;25151;45.566;9.382;2023-07-29T08:22:42;99575.69;;;26.74;54.06
39449;BME280;25151;45.566;9.382;2023-07-29T08:25:14;99565.16;;;26.75;54.51
39449;BME280;25151;45.566;9.382;2023-07-29T08:27:46;99560.69;;;26.68;54.32
39449;BME280;25151;45.566;9.382;2023-07-29T08:30:15;99564.63;;;26.76;54.42
39449;BME280;25151;45.566;9.382;2023-07-29T08:32:44;99570.28;;;26.76;54.03
39449;BME280;25151;45.566;9.382;2023-07-29T08:35:16;99567.47;;;26.76;54.19
39449;BME280;25151;45.566;9.382;2023-07-29T08:37:48;99552.50;;;26.70;54.12
39449;BME280;25151;45.566;9.382;2023-07-29T08:40:23;99562.56;;;26.77;54.19
39449;BME280;25151;45.566;9.382;2023-07-29T08:42:58;99552.84;;;26.78;53.84
39449;BME280;25151;45.566;9.382;2023-07-29T08:45:27;99555.16;;;26.79;54.29
39449;BME280;25151;45.566;9.382;2023-07-29T08:47:57;99549.94;;;26.72;53.88
39449;BME280;25151;45.566;9.382;2023-07-29T08:50:27;99561.59;;;26.80;54.09
39449;BME280;25151;45.566;9.382;2023-07-29T08:52:59;99552.06;;;26.77;53.67
39449;BME280;25151;45.566;9.382;2023-07-29T08:55:26;99545.34;;;26.75;54.05
39449;BME280;25151;45.566;9.382;2023-07-29T08:57:55;99530.88;;;26.67;53.69
39449;BME280;25151;45.566;9.382;2023-07-29T09:00:23;99550.50;;;26.76;53.78
39449;BME280;25151;45.566;9.382;2023-07-29T09:02:55;99542.53;;;26.75;53.96
39449;BME280;25151;45.566;9.382;2023-07-29T09:05:37;99557.50;;;26.81;53.81
39449;BME280;25151;45.566;9.382;2023-07-29T09:08:07;99547.75;;;26.82;53.67
39449;BME280;25151;45.566;9.382;2023-07-29T09:10:37;99548.50;;;26.82;53.39
39449;BME280;25151;45.566;9.382;2023-07-29T09:13:22;99559.81;;;26.82;53.72
39449;BME280;25151;45.566;9.382;2023-07-29T09:15:56;99546.13;;;26.75;53.74
39449;BME280;25151;45.566;9.382;2023-07-29T09:18:26;99540.75;;;26.77;53.45
39449;BME280;25151;45.566;9.382;2023-07-29T09:20:59;99539.47;;;26.78;53.81
39449;BME280;25151;45.566;9.382;2023-07-29T09:23:39;99534.28;;;26.77;53.63
39449;BME280;25151;45.566;9.382;2023-07-29T09:26:12;99553.19;;;26.85;53.59
39449;BME280;25151;45.566;9.382;2023-07-29T09:28:41;99523.78;;;26.77;53.66
39449;BME280;25151;45.566;9.382;2023-07-29T09:31:22;99536.19;;;26.85;53.35
39449;BME280;25151;45.566;9.382;2023-07-29T09:33:57;99536.19;;;26.85;53.63
39449;BME280;25151;45.566;9.382;2023-07-29T09:36:31;99519.94;;;26.80;53.31
39449;BME280;25151;45.566;9.382;2023-07-29T09:39:03;99528.41;;;26.80;53.35
39449;BME280;25151;45.566;9.382;2023-07-29T09:41:38;99515.00;;;26.75;53.35
39449;BME280;25151;45.566;9.382;2023-07-29T09:44:05;99533.63;;;26.87;53.61
39449;BME280;25151;45.566;9.382;2023-07-29T09:46:40;99533.63;;;26.87;53.18
39449;BME280;25151;45.566;9.382;2023-07-29T09:49:12;99521.00;;;26.83;53.40
39449;BME280;25151;45.566;9.382;2023-07-29T09:51:39;99528.75;;;26.88;53.31
39449;BME280;25151;45.566;9.382;2023-07-29T09:54:06;99509.13;;;26.79;53.29
39449;BME280;25151;45.566;9.382;2023-07-29T09:56:39;99524.66;;;26.89;53.46
39449;BME280;25151;45.566;9.382;2023-07-29T09:59:12;99519.78;;;26.89;53.21
39449;BME280;25151;45.566;9.382;2023-07-29T10:01:48;99522.59;;;26.89;53.50
39449;BME280;25151;45.566;9.382;2023-07-29T10:04:19;99513.28;;;26.83;53.43
39449;BME280;25151;45.566;9.382;2023-07-29T10:06:52;99508.47;;;26.89;53.26
39449;BME280;25151;45.566;9.382;2023-07-29T10:09:23;99515.66;;;26.90;53.46
39449;BME280;25151;45.566;9.382;2023-07-29T10:11:56;99511.00;;;26.87;53.29
39449;BME280;25151;45.566;9.382;2023-07-29T10:14:26;99509.97;;;26.85;53.09
39449;BME280;25151;45.566;9.382;2023-07-29T10:16:57;99506.34;;;26.84;53.38
39449;BME280;25151;45.566;9.382;2023-07-29T10:19:29;99512.28;;;26.86;53.31
39449;BME280;25151;45.566;9.382;2023-07-29T10:21:59;99516.66;;;26.87;53.09
39449;BME280;25151;45.566;9.382;2023-07-29T10:24:32;99511.78;;;26.88;53.27
39449;BME280;25151;45.566;9.382;2023-07-29T10:27:04;99517.50;;;26.93;53.18
39449;BME280;25151;45.566;9.382;2023-07-29T10:29:39;99520.81;;;26.92;53.05
39449;BME280;25151;45.566;9.382;2023-07-29T10:32:11;99511.75;;;26.82;53.01
39449;BME280;25151;45.566;9.382;2023-07-29T10:34:39;99503.47;;;26.79;53.41
39449;BME280;25151;45.566;9.382;2023-07-29T10:37:08;99526.25;;;26.95;53.39
39449;BME280;25151;45.566;9.382;2023-07-29T10:39:44;99520.59;;;26.95;53.05
39449;BME280;25151;45.566;9.382;2023-07-29T10:42:27;99520.03;;;26.91;53.33
39449;BME280;25151;45.566;9.382;2023-07-29T10:44:53;99523.16;;;26.93;53.17
39449;BME280;25151;45.566;9.382;2023-07-29T10:47:27;99525.75;;;26.97;53.08
39449;BME280;25151;45.566;9.382;2023-07-29T10:49:57;99510.00;;;26.90;53.45
39449;BME280;25151;45.566;9.382;2023-07-29T10:52:31;99520.38;;;26.99;53.52
39449;BME280;25151;45.566;9.382;2023-07-29T10:55:00;99499.25;;;26.94;53.06
39449;BME280;25151;45.566;9.382;2023-07-29T10:57:37;99505.19;;;26.96;53.65
39449;BME280;25151;45.566;9.382;2023-07-29T11:00:07;99503.69;;;27.01;53.51
39449;BME280;25151;45.566;9.382;2023-07-29T11:02:37;99511.94;;;27.05;53.65
39449;BME280;25151;45.566;9.382;2023-07-29T11:05:17;99517.09;;;27.06;53.15
39449;BME280;25151;45.566;9.382;2023-07-29T11:07:48;99505.19;;;26.96;53.26
39449;BME280;25151;45.566;9.382;2023-07-29T11:10:17;99503.69;;;27.01;53.55
39449;BME280;25151;45.566;9.382;2023-07-29T11:12:44;99520.69;;;27.07;53.29
39449;BME280;25151;45.566;9.382;2023-07-29T11:20:20;99505.22;;;27.02;53.69
39449;BME280;25151;45.566;9.382;2023-07-29T11:22:50;99516.03;;;27.04;53.30
39449;BME280;25151;45.566;9.382;2023-07-29T11:25:25;99507.06;;;27.05;53.73
39449;BME280;25151;45.566;9.382;2023-07-29T11:27:52;99506.81;;;27.09;53.71
39449;BME280;25151;45.566;9.382;2023-07-29T11:30:24;99502.41;;;27.08;53.91
39449;BME280;25151;45.566;9.382;2023-07-29T11:32:58;99496.75;;;27.08;53.64
39449;BME280;25151;45.566;9.382;2023-07-29T11:35:27;99495.50;;;27.09;53.88
39449;BME280;25151;45.566;9.382;2023-07-29T11:37:57;99487.00;;;27.09;53.60
39449;BME280;25151;45.566;9.382;2023-07-29T11:40:26;99481.34;;;27.09;53.46
39449;BME280;25151;45.566;9.382;2023-07-29T11:42:58;99493.78;;;27.17;53.64
39449;BME280;25151;45.566;9.382;2023-07-29T11:45:43;99488.91;;;27.17;53.84
39449;BME280;25151;45.566;9.382;2023-07-29T11:48:12;99479.59;;;27.11;53.61
39449;BME280;25151;45.566;9.382;2023-07-29T11:50:41;99490.44;;;27.18;53.51
39449;BME280;25151;45.566;9.382;2023-07-29T11:53:13;99479.91;;;27.19;54.00
39449;BME280;25151;45.566;9.382;2023-07-29T11:55:42;99465.50;;;27.17;54.11
39449;BME280;25151;45.566;9.382;2023-07-29T11:58:08;99468.09;;;27.20;53.54
39449;BME280;25151;45.566;9.382;2023-07-29T12:00:41;99455.94;;;27.14;53.93
39449;BME280;25151;45.566;9.382;2023-07-29T12:03:14;99461.91;;;27.22;53.95
39449;BME280;25151;45.566;9.382;2023-07-29T12:05:46;99457.00;;;27.17;54.08
39449;BME280;25151;45.566;9.382;2023-07-29T12:08:20;99450.81;;;27.18;53.90
39449;BME280;25151;45.566;9.382;2023-07-29T12:10:59;99444.41;;;27.18;53.96
39449;BME280;25151;45.566;9.382;2023-07-29T12:13:29;99448.81;;;27.25;53.69
39449;BME280;25151;45.566;9.382;2023-07-29T12:16:01;99451.13;;;27.26;53.96
39449;BME280;25151;45.566;9.382;2023-07-29T12:18:33;99440.03;;;27.23;53.65
39449;BME280;25151;45.566;9.382;2023-07-29T12:21:00;99444.69;;;27.26;53.50
39449;BME280;25151;45.566;9.382;2023-07-29T12:23:32;99455.25;;;27.25;53.53
39449;BME280;25151;45.566;9.382;2023-07-29T12:26:01;99436.16;;;27.20;53.44
39449;BME280;25151;45.566;9.382;2023-07-29T12:28:30;99439.00;;;27.20;53.87
39449;BME280;25151;45.566;9.382;2023-07-29T12:31:12;99439.28;;;27.22;53.70
39449;BME280;25151;45.566;9.382;2023-07-29T12:33:41;99433.88;;;27.24;53.53
39449;BME280;25151;45.566;9.382;2023-07-29T12:36:10;99433.59;;;27.22;53.94
39449;BME280;25151;45.566;9.382;2023-07-29T12:38:45;99432.06;;;27.21;53.99
39449;BME280;25151;45.566;9.382;2023-07-29T12:41:14;99428.72;;;27.23;53.59
39449;BME280;25151;45.566;9.382;2023-07-29T12:43:45;99425.38;;;27.24;53.98
39449;BME280;25151;45.566;9.382;2023-07-29T12:46:16;99422.28;;;27.22;53.75
39449;BME280;25151;45.566;9.382;2023-07-29T12:48:48;99420.28;;;27.28;53.93
39449;BME280;25151;45.566;9.382;2023-07-29T12:51:18;99422.59;;;27.30;53.48
39449;BME280;25151;45.566;9.382;2023-07-29T12:53:46;99421.53;;;27.27;53.79
39449;BME280;25151;45.566;9.382;2023-07-29T12:56:14;99406.06;;;27.17;53.81
39449;BME280;25151;45.566;9.382;2023-07-29T12:58:46;99398.34;;;27.23;53.96
39449;BME280;25151;45.566;9.382;2023-07-29T13:01:17;99405.59;;;27.30;53.38
39449;BME280;25151;45.566;9.382;2023-07-29T13:03:52;99401.19;;;27.23;53.44
39449;BME280;25151;45.566;9.382;2023-07-29T13:06:23;99412.03;;;27.30;53.44
39449;BME280;25151;45.566;9.382;2023-07-29T13:08:50;99409.72;;;27.29;53.88
39449;BME280;25151;45.566;9.382;2023-07-29T13:11:19;99393.75;;;27.26;53.80
39449;BME280;25151;45.566;9.382;2023-07-29T13:13:51;99402.00;;;27.29;53.63
39449;BME280;25151;45.566;9.382;2023-07-29T13:16:19;99378.53;;;27.23;53.76
39449;BME280;25151;45.566;9.382;2023-07-29T13:18:50;99387.84;;;27.29;53.83
39449;BME280;25151;45.566;9.382;2023-07-29T13:21:23;99372.88;;;27.23;53.47
39449;BME280;25151;45.566;9.382;2023-07-29T13:23:58;99366.44;;;27.23;53.38